Time;durP1;ratioP1;P1;durP2;ratioP2;P2;SDS_P1;SDS_P2;PMS_P1;PMS_P2;Temp;Humidity;BMP_temperature;BMP_pressure;BME280_temperature;BME280_humidity;BME280_pressure;Samples;Min_cycle;Max_cycle;Signal;HPM_P1;HPM_P2
2023/06/13 00:02:28;;;;;;;0.45;0.45;;;21.60;52.00;;;22.05;36.22;94904.91;5011942;28;20205;-40
2023/06/13 00:04:57;;;;;;;0.50;0.50;;;21.60;52.00;;;22.04;36.27;94905.19;5015524;28;20709;-40
2023/06/13 00:07:24;;;;;;;0.50;0.50;;;21.50;52.00;;;22.00;36.42;94896.91;5015356;28;20671;-39
2023/06/13 00:09:51;;;;;;;0.40;0.40;;;21.50;52.00;;;21.98;36.75;94906.25;5015767;28;20205;-41
2023/06/13 00:12:20;;;;;;;0.50;0.50;;;21.50;52.00;;;21.95;36.70;94899.56;5015475;28;20207;-44
2023/06/13 00:14:50;;;;;;;0.30;0.30;;;21.50;51.90;;;21.93;36.71;94899.00;5015661;28;20204;-43
2023/06/13 00:17:18;;;;;;;0.40;0.40;;;21.50;52.00;;;21.91;36.94;94895.81;5015668;28;20190;-41
2023/06/13 00:19:48;;;;;;;0.40;0.40;;;21.50;52.00;;;21.89;36.81;94895.28;5015482;28;20198;-46
2023/06/13 00:22:15;;;;;;;0.40;0.40;;;21.50;52.10;;;21.88;36.58;94896.34;5015378;28;20238;-42
2023/06/13 00:24:43;;;;;;;0.50;0.50;;;21.40;52.10;;;21.85;36.54;94886.16;5015425;28;20620;-40
2023/06/13 00:27:10;;;;;;;0.40;0.40;;;21.40;52.10;;;21.83;36.43;94882.97;5014750;28;20230;-41
2023/06/13 00:29:38;;;;;;;0.50;0.50;;;21.40;52.10;;;21.82;36.80;94884.03;5014398;28;20298;-42
2023/06/13 00:32:06;;;;;;;0.50;0.50;;;21.40;52.10;;;21.79;36.69;94881.88;5015594;28;20209;-41
2023/06/13 00:34:35;;;;;;;0.50;0.50;;;21.40;52.20;;;21.76;36.81;94885.88;5014261;28;20239;-41
2023/06/13 00:37:03;;;;;;;0.40;0.40;;;21.30;52.00;;;21.74;36.95;94883.50;5014359;28;20628;-45
2023/06/13 00:39:32;;;;;;;0.38;0.38;;;21.30;52.10;;;21.71;36.81;94877.88;5015462;28;20197;-42
2023/06/13 00:42:01;;;;;;;0.50;0.50;;;21.30;52.10;;;21.69;36.91;94878.16;5014998;28;20235;-42
2023/06/13 00:44:29;;;;;;;0.40;0.40;;;21.30;52.20;;;21.68;36.62;94881.06;5015164;28;20638;-43
2023/06/13 00:46:57;;;;;;;0.40;0.40;;;21.30;52.20;;;21.64;37.03;94870.13;5015435;28;20224;-41
2023/06/13 00:49:25;;;;;;;0.50;0.50;;;21.30;52.30;;;21.62;36.66;94866.91;4997901;28;20258;-43
2023/06/13 00:51:54;;;;;;;0.40;0.40;;;21.20;52.20;;;21.61;36.59;94867.19;5014302;28;20362;-43
2023/06/13 00:54:23;;;;;;;0.40;0.40;;;21.20;52.20;;;21.58;37.01;94871.16;5015080;28;20702;-44
2023/06/13 00:56:50;;;;;;;0.40;0.40;;;21.20;52.20;;;21.56;37.19;94863.41;5015065;28;20196;-45
2023/06/13 00:59:18;;;;;;;0.40;0.40;;;21.20;52.30;;;21.55;37.21;94863.66;5014014;28;20751;-46
2023/06/13 01:01:47;;;;;;;0.47;0.47;;;21.10;52.20;;;21.54;37.12;94867.38;5014566;28;20287;-43
2023/06/13 01:04:15;;;;;;;0.60;0.60;;;21.10;52.20;;;21.51;36.86;94862.59;4997733;28;20205;-40
2023/06/13 01:06:45;;;;;;;0.40;0.40;;;21.10;52.20;;;21.49;36.75;94859.38;5014559;28;20669;-40
2023/06/13 01:09:17;;;;;;;0.50;0.50;;;21.10;52.20;;;21.47;37.06;94854.28;5029853;28;20601;-39
2023/06/13 01:12:00;;;;;;;0.40;0.40;;;21.10;52.30;;;21.44;36.88;94858.25;5013819;28;20214;-41
2023/06/13 01:14:55;;;;;;;0.45;0.45;;;21.10;52.40;;;21.39;37.04;94852.91;5012933;28;20551;-40
2023/06/13 01:17:31;;;;;;;0.40;0.40;;;21.10;52.40;;;21.38;36.96;94851.31;5030163;28;20536;-40
2023/06/13 01:20:05;;;;;;;0.40;0.40;;;21.00;52.30;;;21.35;37.14;94851.84;5014506;28;20177;-40
2023/06/13 01:23:15;;;;;;;0.40;0.40;;;21.00;52.20;;;21.30;37.19;94848.34;5014649;28;20328;-40
2023/06/13 01:26:14;;;;;;;0.40;0.40;;;21.00;52.30;;;21.27;36.84;94853.13;4968620;28;20226;-39
2023/06/13 01:28:47;;;;;;;0.40;0.40;;;21.00;52.40;;;21.25;36.82;94855.28;5013946;28;20261;-39
2023/06/13 01:31:17;;;;;;;0.40;0.40;;;20.90;52.30;;;21.22;36.97;94850.44;5013738;28;20213;-40
2023/06/13 01:33:46;;;;;;;0.40;0.40;;;20.90;52.30;;;21.22;36.95;94853.13;5029599;28;20196;-42
2023/06/13 01:36:14;;;;;;;0.50;0.50;;;20.90;53.60;;;21.20;37.34;94855.25;5014228;28;20286;-40
2023/06/13 01:38:42;;;;;;;0.40;0.40;;;20.80;52.20;;;21.18;37.02;94849.38;5013200;28;20261;-42
2023/06/13 01:41:11;;;;;;;0.40;0.40;;;20.80;52.30;;;21.15;37.09;94844.56;5029312;28;20197;-40
2023/06/13 01:43:39;;;;;;;0.40;0.40;;;20.80;52.30;;;21.14;37.22;94848.31;5029435;28;20208;-41
2023/06/13 01:46:18;;;;;;;0.50;0.50;;;20.80;52.40;;;21.13;37.36;94837.88;5014329;28;20219;-40
2023/06/13 01:49:29;;;;;;;0.50;0.50;;;20.80;52.40;;;21.09;37.46;94833.06;5013963;28;20223;-45
2023/06/13 01:52:15;;;;;;;0.40;0.40;;;20.80;52.50;;;21.05;37.30;94825.84;5013278;28;20173;-42
2023/06/13 01:54:51;;;;;;;0.50;0.50;;;20.70;52.30;;;21.04;37.04;94830.38;5014200;28;20274;-39
2023/06/13 01:57:23;;;;;;;0.40;0.40;;;20.70;52.30;;;21.03;37.07;94831.44;4996859;28;20649;-40
2023/06/13 01:59:55;;;;;;;0.40;0.40;;;20.70;53.00;;;21.02;37.47;94829.03;5029395;28;20679;-40
2023/06/13 02:02:23;;;;;;;0.40;0.40;;;20.70;52.50;;;21.00;37.41;94828.50;5012895;28;20610;-41
2023/06/13 02:04:51;;;;;;;0.50;0.50;;;20.70;52.50;;;20.98;37.16;94834.06;5029311;28;20653;-39
2023/06/13 02:07:18;;;;;;;0.40;0.40;;;20.70;52.40;;;20.97;37.51;94832.50;5013051;28;20628;-42
2023/06/13 02:09:46;;;;;;;0.40;0.40;;;20.70;52.50;;;20.96;37.42;94828.22;5014214;28;20295;-41
2023/06/13 02:12:17;;;;;;;0.40;0.40;;;20.60;52.40;;;20.94;37.08;94833.78;5013912;28;20202;-40
2023/06/13 02:14:44;;;;;;;0.50;0.50;;;20.60;52.50;;;20.93;37.26;94826.06;5029246;28;20239;-41
2023/06/13 02:17:12;;;;;;;0.30;0.30;;;20.60;52.50;;;20.91;37.28;94828.16;5029184;28;20231;-41
2023/06/13 02:19:39;;;;;;;0.50;0.50;;;20.60;52.50;;;20.88;37.18;94829.50;5029399;28;20206;-42
2023/06/13 02:22:06;;;;;;;0.50;0.50;;;20.60;53.90;;;20.88;37.49;94820.72;5013215;28;20246;-39
2023/06/13 02:24:35;;;;;;;0.60;0.60;;;20.60;52.60;;;20.87;37.35;94827.09;5013469;28;20181;-42
2023/06/13 02:27:03;;;;;;;0.40;0.40;;;20.50;52.50;;;20.85;37.66;94829.22;5013458;28;20209;-40
2023/06/13 02:29:31;;;;;;;0.40;0.40;;;20.50;52.60;;;20.83;37.79;94829.47;5013706;28;20726;-42
2023/06/13 02:31:58;;;;;;;0.50;0.50;;;20.50;52.60;;;20.79;37.46;94823.84;5013676;28;20193;-42
2023/06/13 02:34:26;;;;;;;0.50;0.50;;;20.50;52.60;;;20.78;37.14;94827.56;5013560;28;20232;-41
2023/06/13 02:36:53;;;;;;;0.40;0.40;;;20.50;52.60;;;20.77;37.17;94827.84;5029148;28;20244;-44
2023/06/13 02:39:20;;;;;;;0.43;0.43;;;20.50;52.60;;;20.76;37.25;94818.22;5013802;28;20239;-43
2023/06/13 02:41:47;;;;;;;0.40;0.40;;;20.50;52.50;;;20.75;37.60;94820.09;5012373;28;20209;-44
2023/06/13 02:44:14;;;;;;;0.50;0.50;;;20.50;52.60;;;20.73;37.62;94816.88;5029043;28;20204;-44
2023/06/13 02:46:41;;;;;;;0.40;0.40;;;20.40;52.60;;;20.72;37.38;94815.28;5013445;28;20286;-41
2023/06/13 02:49:09;;;;;;;0.40;0.40;;;20.40;52.60;;;20.70;37.69;94813.91;5013475;28;20249;-44
2023/06/13 02:51:36;;;;;;;0.40;0.40;;;20.40;52.60;;;20.68;37.47;94816.84;5013465;28;20223;-43
2023/06/13 02:54:04;;;;;;;0.50;0.50;;;20.40;52.70;;;20.66;37.47;94821.63;5028356;28;20212;-41
2023/06/13 02:56:31;;;;;;;0.60;0.60;;;20.40;52.70;;;20.65;37.68;94814.69;5028478;28;20548;-39
2023/06/13 02:58:58;;;;;;;0.50;0.50;;;20.40;52.70;;;20.63;37.28;94812.28;5012980;28;20257;-39
2023/06/13 03:01:26;;;;;;;0.50;0.50;;;20.30;52.60;;;20.61;37.30;94809.06;5012219;28;20204;-41
2023/06/13 03:03:56;;;;;;;0.50;0.50;;;20.40;52.70;;;20.59;37.33;94805.88;5011894;28;20193;-40
2023/06/13 03:06:24;;;;;;;0.60;0.60;;;20.30;52.70;;;20.59;37.36;94813.03;5028259;28;20204;-40
2023/06/13 03:08:52;;;;;;;0.40;0.40;;;20.30;52.70;;;20.57;37.33;94813.31;5028506;28;20231;-39
2023/06/13 03:11:20;;;;;;;0.40;0.40;;;20.30;52.70;;;20.55;37.71;94806.63;5011771;28;20222;-41
2023/06/13 03:13:47;;;;;;;0.50;0.50;;;20.30;52.70;;;20.54;37.29;94805.03;5028388;28;20650;-39
2023/06/13 03:16:14;;;;;;;0.43;0.43;;;20.30;52.70;;;20.52;37.47;94799.97;5013123;28;20210;-40
2023/06/13 03:18:41;;;;;;;0.40;0.40;;;20.20;52.50;;;20.50;37.90;94799.41;5011780;28;20259;-41
2023/06/13 03:21:09;;;;;;;0.40;0.40;;;20.20;52.60;;;20.50;37.73;94799.41;5012719;28;20218;-39
2023/06/13 03:23:36;;;;;;;0.50;0.50;;;20.30;52.70;;;20.47;37.54;94802.59;5012628;28;20311;-39
2023/06/13 03:26:03;;;;;;;0.45;0.45;;;20.20;52.70;;;20.44;37.47;94798.56;5011553;28;20205;-40
2023/06/13 03:28:31;;;;;;;0.40;0.40;;;20.20;52.70;;;20.44;37.39;94800.44;5011627;28;20228;-40
2023/06/13 03:31:00;;;;;;;0.50;0.50;;;20.20;52.70;;;20.42;37.56;94803.38;5011565;28;20224;-40
2023/06/13 03:33:31;;;;;;;0.47;0.47;;;20.20;52.70;;;20.40;37.93;94802.81;5028000;28;20610;-39
2023/06/13 03:35:59;;;;;;;0.40;0.40;;;20.20;52.80;;;20.40;37.60;94805.47;5027947;28;20242;-40
2023/06/13 03:38:27;;;;;;;0.43;0.43;;;20.20;52.80;;;20.37;38.04;94803.31;5027147;28;20201;-39
2023/06/13 03:40:55;;;;;;;0.40;0.40;;;20.20;52.90;;;20.37;37.48;94797.19;5028244;28;20227;-41
2023/06/13 03:43:22;;;;;;;0.40;0.40;;;20.10;52.80;;;20.37;38.02;94794.53;5011871;28;20586;-41
2023/06/13 03:45:49;;;;;;;0.50;0.50;;;20.10;52.80;;;20.34;38.02;94806.50;5012554;28;20206;-39
2023/06/13 03:48:17;;;;;;;0.40;0.40;;;20.10;52.90;;;20.32;38.02;94797.94;5011614;28;20592;-39
2023/06/13 03:50:45;;;;;;;0.30;0.30;;;20.10;53.00;;;20.31;37.57;94801.66;5027827;28;20577;-40
2023/06/13 03:53:12;;;;;;;0.40;0.40;;;20.10;52.90;;;20.28;37.76;94796.88;5012428;28;20278;-42
2023/06/13 03:55:39;;;;;;;0.50;0.50;;;20.10;53.00;;;20.28;37.73;94795.00;5011365;28;20238;-43
2023/06/13 03:58:06;;;;;;;0.40;0.40;;;20.10;53.00;;;20.28;37.71;94788.88;5012249;28;20200;-40
2023/06/13 04:00:34;;;;;;;0.45;0.45;;;20.10;53.00;;;20.27;38.21;94789.94;5011584;28;20216;-41
2023/06/13 04:03:01;;;;;;;0.40;0.40;;;20.00;53.00;;;20.26;38.38;94789.13;5027666;28;20209;-41
2023/06/13 04:05:28;;;;;;;0.40;0.40;;;20.00;53.00;;;20.26;37.96;94788.31;5012296;28;20187;-41
2023/06/13 04:07:55;;;;;;;0.40;0.40;;;20.00;53.00;;;20.24;38.25;94782.47;5011874;28;20200;-42
2023/06/13 04:10:23;;;;;;;0.30;0.30;;;20.00;53.20;;;20.23;38.28;94778.97;5012430;28;20212;-42
2023/06/13 04:12:49;;;;;;;0.50;0.50;;;20.10;53.30;;;20.23;38.10;94778.19;5012184;28;20230;-42
2023/06/13 04:15:16;;;;;;;0.40;0.40;;;20.10;53.40;;;20.22;38.39;94776.59;5027415;28;20220;-41
2023/06/13 04:17:44;;;;;;;0.40;0.40;;;20.00;53.30;;;20.20;37.79;94776.84;5012027;28;20199;-44
2023/06/13 04:20:14;;;;;;;0.50;0.50;;;20.00;53.30;;;20.19;38.37;94777.91;5010947;28;20233;-41
2023/06/13 04:22:43;;;;;;;0.40;0.40;;;20.00;53.40;;;20.19;38.17;94785.91;5011896;28;20234;-42
2023/06/13 04:25:10;;;;;;;0.40;0.40;;;20.00;53.40;;;20.19;38.71;94783.22;5027379;28;20209;-41
2023/06/13 04:27:38;;;;;;;0.50;0.50;;;20.00;53.40;;;20.18;38.13;94776.28;5027298;28;20285;-41
2023/06/13 04:30:06;;;;;;;0.40;0.40;;;20.00;53.60;;;20.19;38.74;94772.56;5011835;28;20262;-43
2023/06/13 04:32:34;;;;;;;0.47;0.47;;;20.00;53.50;;;20.19;38.33;94779.75;5010797;28;20537;-41
2023/06/13 04:35:01;;;;;;;0.50;0.50;;;20.00;53.60;;;20.18;38.88;94776.28;5011725;28;20253;-44
2023/06/13 04:37:30;;;;;;;0.40;0.40;;;20.00;53.70;;;20.19;38.45;94782.41;5011612;28;20221;-44
2023/06/13 04:39:58;;;;;;;0.47;0.47;;;20.00;53.70;;;20.19;38.32;94774.41;5011635;28;20346;-43
2023/06/13 04:42:28;;;;;;;0.40;0.40;;;20.00;53.80;;;20.20;38.91;94781.34;5010649;28;20533;-41
2023/06/13 04:45:13;;;;;;;0.40;0.40;;;20.00;53.80;;;20.19;39.08;94782.41;5010879;28;20216;-42
2023/06/13 04:47:40;;;;;;;0.50;0.50;;;20.00;53.80;;;20.19;39.02;94785.06;5010048;28;20302;-41
2023/06/13 04:50:25;;;;;;;0.43;0.43;;;20.00;53.80;;;20.19;39.02;94783.22;5012993;28;20569;-40
2023/06/13 04:52:53;;;;;;;0.40;0.40;;;20.00;53.70;;;20.19;38.71;94774.41;5013251;28;20343;-41
2023/06/13 04:55:22;;;;;;;0.50;0.50;;;20.00;53.80;;;20.20;38.79;94776.03;5013341;28;20250;-41
2023/06/13 04:57:50;;;;;;;0.47;0.47;;;20.10;53.80;;;20.20;38.98;94776.03;5012976;28;20367;-41
2023/06/13 05:00:19;;;;;;;0.45;0.45;;;20.10;53.80;;;20.20;38.53;94776.84;5013422;28;20665;-39
2023/06/13 05:02:46;;;;;;;0.50;0.50;;;20.10;53.80;;;20.21;38.61;94781.09;5013049;28;20199;-40
2023/06/13 05:05:18;;;;;;;0.45;0.45;;;20.10;53.80;;;20.21;39.09;94780.31;5013060;28;20211;-41
2023/06/13 05:07:47;;;;;;;0.40;0.40;;;20.10;53.80;;;20.21;38.96;94785.63;5013217;28;20197;-41
2023/06/13 05:10:16;;;;;;;0.47;0.47;;;20.10;53.80;;;20.21;38.61;94791.75;5013575;28;20323;-40
2023/06/13 05:12:45;;;;;;;0.40;0.40;;;20.10;53.70;;;20.22;38.65;94789.91;5013648;28;20532;-39
2023/06/13 05:15:12;;;;;;;0.68;0.68;;;20.10;53.80;;;20.21;38.70;94793.63;5012193;28;20623;-40
2023/06/13 05:17:39;;;;;;;0.32;0.32;;;20.10;53.70;;;20.22;38.48;94795.22;5014251;28;20283;-40
2023/06/13 05:20:07;;;;;;;0.40;0.40;;;20.10;53.70;;;20.23;39.01;94796.84;5014598;28;20254;-40
2023/06/13 05:22:34;;;;;;;0.40;0.40;;;20.10;53.70;;;20.22;39.11;94796.03;5014278;28;20334;-41
2023/06/13 05:25:01;;;;;;;0.50;0.50;;;20.10;53.60;;;20.23;38.63;94802.94;5014554;28;20246;-43
2023/06/13 05:27:28;;;;;;;0.40;0.40;;;20.10;53.70;;;20.23;38.62;94797.63;5014188;28;20231;-43
2023/06/13 05:29:56;;;;;;;0.40;0.40;;;20.10;53.80;;;20.24;38.79;94803.78;5014855;28;20235;-40
2023/06/13 05:32:23;;;;;;;0.50;0.50;;;20.10;53.70;;;20.25;38.46;94800.84;5014201;28;20188;-43
2023/06/13 05:34:50;;;;;;;0.40;0.40;;;20.20;53.90;;;20.24;38.62;94798.44;5014385;28;20253;-41
2023/06/13 05:37:18;;;;;;;0.40;0.40;;;20.10;53.80;;;20.26;38.97;94805.13;5013305;28;20191;-41
2023/06/13 05:39:45;;;;;;;0.40;0.40;;;20.20;54.80;;;20.27;39.07;94808.56;5014401;28;20574;-41
2023/06/13 05:42:12;;;;;;;0.50;0.50;;;20.20;53.90;;;20.17;39.06;94785.34;5014334;28;20224;-41
2023/06/13 05:44:39;;;;;;;0.40;0.40;;;20.20;53.90;;;20.27;38.66;94798.72;5014071;28;20538;-41
2023/06/13 05:47:06;;;;;;;0.40;0.40;;;20.20;53.90;;;20.28;38.93;94799.53;5013848;28;20204;-41
2023/06/13 05:49:34;;;;;;;0.47;0.47;;;20.20;53.80;;;20.29;38.74;94806.47;5013894;28;20569;-41
2023/06/13 05:52:01;;;;;;;0.60;0.60;;;20.20;53.90;;;20.29;39.15;94798.47;5014050;28;20200;-41
2023/06/13 05:54:28;;;;;;;0.50;0.50;;;20.20;53.90;;;20.30;39.04;94800.09;5013214;28;20217;-40
2023/06/13 05:56:56;;;;;;;0.30;0.30;;;20.20;54.00;;;20.31;39.10;94799.81;5013795;28;20290;-45
2023/06/13 05:59:23;;;;;;;0.50;0.50;;;20.20;54.00;;;20.33;38.75;94804.88;5013836;28;20193;-42
2023/06/13 06:01:50;;;;;;;0.40;0.40;;;20.20;54.00;;;20.34;39.13;94803.03;5013588;28;20211;-42
2023/06/13 06:04:17;;;;;;;0.40;0.40;;;20.20;54.00;;;20.34;39.00;94803.03;5013678;28;20208;-40
2023/06/13 06:06:45;;;;;;;0.50;0.50;;;20.30;54.00;;;;;;5013718;28;20211;-44
2023/06/13 06:09:12;;;;;;;0.40;0.40;;;20.30;54.00;;;20.36;39.23;94801.72;5013893;28;20220;-41
2023/06/13 06:11:39;;;;;;;0.40;0.40;;;20.30;54.00;;;20.37;38.67;94792.66;5013707;28;20224;-43
2023/06/13 06:14:06;;;;;;;0.40;0.40;;;20.30;54.00;;;20.38;39.29;94796.91;5014162;28;20262;-46
2023/06/13 06:16:34;;;;;;;0.40;0.40;;;20.30;54.00;;;20.38;39.11;94790.81;5013463;28;20520;-45
2023/06/13 06:19:01;;;;;;;0.70;0.70;;;20.30;54.00;;;20.40;39.14;94794.81;5014127;28;20273;-42
2023/06/13 06:21:30;;;;;;;0.40;0.40;;;20.30;54.00;;;20.42;38.75;94803.38;5013462;28;20198;-50
2023/06/13 06:23:57;;;;;;;0.40;0.40;;;20.30;54.00;;;20.42;39.08;94803.38;5013431;28;20181;-43
2023/06/13 06:26:24;;;;;;;0.50;0.50;;;20.30;54.00;;;20.43;38.98;94807.63;5013392;28;20189;-43
2023/06/13 06:28:51;;;;;;;0.40;0.40;;;20.30;54.00;;;20.44;39.11;94803.09;5013352;28;20711;-41
2023/06/13 06:31:19;;;;;;;0.50;0.50;;;20.40;54.10;;;20.47;38.79;94810.59;5013673;28;20207;-42
2023/06/13 06:33:46;;;;;;;0.50;0.50;;;20.40;54.10;;;20.48;39.23;94806.84;5013492;28;20208;-41
2023/06/13 06:36:14;;;;;;;0.40;0.40;;;20.40;54.10;;;20.50;39.13;94806.59;5013628;28;20643;-41
2023/06/13 06:38:42;;;;;;;0.40;0.40;;;20.40;54.10;;;20.52;38.88;94815.94;5012937;28;20530;-41
2023/06/13 06:41:09;;;;;;;0.40;0.40;;;20.40;54.20;;;20.54;38.91;94815.69;5012267;28;20646;-41
2023/06/13 06:43:36;;;;;;;0.40;0.40;;;20.40;54.10;;;20.56;38.73;94817.03;5013157;28;20201;-41
2023/06/13 06:46:09;;;;;;;0.45;0.45;;;20.40;54.10;;;20.58;39.10;94814.09;5012123;28;20245;-42
2023/06/13 06:48:37;;;;;;;0.40;0.40;;;20.40;55.30;;;20.60;38.83;94812.00;5013145;28;20201;-42
2023/06/13 06:51:04;;;;;;;0.38;0.38;;;20.50;54.20;;;20.61;39.30;94806.41;5013179;28;20236;-41
2023/06/13 06:53:32;;;;;;;0.50;0.50;;;20.50;54.10;;;20.63;38.99;94814.16;5028427;28;20272;-41
2023/06/13 06:55:59;;;;;;;0.38;0.38;;;20.50;54.10;;;20.66;38.64;94813.63;5012866;28;20246;-42
2023/06/13 06:58:26;;;;;;;0.50;0.50;;;20.50;54.00;;;20.67;39.21;94815.22;5012665;28;20654;-41
2023/06/13 07:00:54;;;;;;;0.40;0.40;;;20.50;54.00;;;20.70;38.64;94808.56;5013115;28;20279;-44
2023/06/13 07:03:21;;;;;;;0.40;0.40;;;20.60;54.10;;;20.71;39.22;94810.97;5012925;28;20265;-42
2023/06/13 07:05:48;;;;;;;0.45;0.45;;;20.60;54.00;;;20.73;38.68;94805.44;5013044;28;20204;-42
2023/06/13 07:08:15;;;;;;;0.40;0.40;;;20.60;53.90;;;20.75;38.47;94809.44;5012677;28;20591;-41
2023/06/13 07:10:43;;;;;;;0.40;0.40;;;20.60;53.90;;;20.77;39.12;94801.97;5012980;28;20211;-42
2023/06/13 07:13:10;;;;;;;0.40;0.40;;;20.60;53.80;;;20.78;38.48;94798.25;5011954;28;20213;-42
2023/06/13 07:15:37;;;;;;;0.40;0.40;;;20.60;53.70;;;20.81;38.45;94807.59;5012728;28;20204;-43
2023/06/13 07:18:06;;;;;;;0.40;0.40;;;20.70;53.70;;;20.83;38.30;94802.81;5012545;28;20194;-43
2023/06/13 07:20:34;;;;;;;0.40;0.40;;;20.70;53.60;;;20.85;38.49;94805.22;5011606;28;20273;-42
2023/06/13 07:23:03;;;;;;;0.43;0.43;;;20.70;53.60;;;20.87;38.46;94808.44;5012699;28;20232;-42
2023/06/13 07:25:32;;;;;;;0.50;0.50;;;20.70;53.50;;;20.89;38.66;94806.31;5012731;28;20287;-45
2023/06/13 07:27:59;;;;;;;0.40;0.40;;;20.70;53.50;;;20.90;38.67;94807.94;5012574;28;20288;-43
2023/06/13 07:30:27;;;;;;;0.40;0.40;;;20.70;53.40;;;20.91;38.25;94807.66;5012298;28;20228;-41
2023/06/13 07:32:54;;;;;;;0.40;0.40;;;20.80;53.40;;;20.93;38.04;94804.72;5012684;28;20253;-40
2023/06/13 07:35:26;;;;;;;0.40;0.40;;;20.80;53.30;;;20.93;38.06;94805.53;5012784;28;20261;-41
2023/06/13 07:37:54;;;;;;;0.50;0.50;;;20.80;53.20;;;20.96;38.00;94809.56;5012667;28;20201;-43
2023/06/13 07:40:21;;;;;;;0.40;0.40;;;20.80;53.10;;;20.98;38.06;94812.75;5012572;28;20631;-42
2023/06/13 07:42:49;;;;;;;0.32;0.32;;;20.80;53.20;;;21.00;38.37;94801.84;5012490;28;20285;-44
2023/06/13 07:45:16;;;;;;;0.40;0.40;;;20.80;54.30;;;21.03;37.83;94795.97;5012224;28;20202;-46
2023/06/13 07:47:44;;;;;;;0.40;0.40;;;20.90;53.00;;;21.04;37.83;94797.56;5012591;28;20196;-44
2023/06/13 07:50:11;;;;;;;0.40;0.40;;;20.80;52.90;;;21.06;37.69;94792.78;5012068;28;20225;-42
2023/06/13 07:52:40;;;;;;;0.40;0.40;;;20.90;52.80;;;21.08;37.66;94799.47;5012144;28;20204;-43
2023/06/13 07:55:07;;;;;;;0.40;0.40;;;20.90;52.80;;;21.09;38.14;94793.06;5012389;28;20301;-40
2023/06/13 07:57:34;;;;;;;0.40;0.40;;;20.90;52.80;;;21.11;37.51;94796.25;5012214;28;20189;-44
2023/06/13 08:00:22;;;;;;;0.40;0.40;;;20.90;52.70;;;21.13;37.60;94801.34;5012458;28;20189;-43
2023/06/13 08:02:50;;;;;;;0.40;0.40;;;21.00;52.70;;;21.14;37.77;94794.97;5012290;28;20213;-41
2023/06/13 08:05:18;;;;;;;0.50;0.50;;;21.00;52.60;;;21.17;37.90;94790.97;5012321;28;20207;-44
2023/06/13 08:07:45;;;;;;;0.40;0.40;;;21.00;52.50;;;21.18;37.33;94795.22;5012128;28;20210;-44
2023/06/13 08:10:12;;;;;;;0.50;0.50;;;21.00;52.50;;;21.19;37.69;94808.31;5012158;28;20209;-41
2023/06/13 08:12:40;;;;;;;0.40;0.40;;;21.00;52.40;;;21.22;37.63;94806.97;5012339;28;20194;-44
2023/06/13 08:15:09;;;;;;;0.40;0.40;;;21.10;52.60;;;21.23;37.59;94803.25;5027677;28;20270;-40
2023/06/13 08:17:37;;;;;;;0.40;0.40;;;21.10;52.50;;;21.24;37.45;94804.88;5012277;28;20631;-40
2023/06/13 08:20:05;;;;;;;0.40;0.40;;;21.10;52.50;;;21.26;37.13;94803.53;5011874;28;20280;-40
2023/06/13 08:22:32;;;;;;;0.40;0.40;;;21.10;52.20;;;21.27;37.34;94805.13;5012076;28;20234;-40
2023/06/13 08:25:00;;;;;;;0.45;0.45;;;21.10;52.10;;;21.29;37.50;94802.22;5015099;28;20245;-40
2023/06/13 08:27:27;;;;;;;0.47;0.47;;;21.10;52.00;;;21.31;37.09;94804.59;5014866;28;20557;-40
2023/06/13 08:29:56;;;;;;;0.40;0.40;;;21.10;52.00;;;21.32;37.07;94803.53;5014982;28;20216;-40
2023/06/13 08:32:24;;;;;;;0.40;0.40;;;21.10;51.90;;;21.30;36.99;94795.81;5015133;28;20205;-40
2023/06/13 08:34:51;;;;;;;0.40;0.40;;;21.20;51.80;;;21.34;37.13;94807.56;5014132;28;20241;-40
2023/06/13 08:37:18;;;;;;;0.40;0.40;;;21.10;51.70;;;21.36;37.16;94796.63;5015352;28;20200;-39
2023/06/13 08:39:46;;;;;;;0.40;0.40;;;21.20;51.70;;;21.37;36.93;94804.38;5014855;28;20206;-40
2023/06/13 08:42:13;;;;;;;0.40;0.40;;;21.20;51.70;;;21.39;36.97;94798.78;5014683;28;20286;-40
2023/06/13 08:44:41;;;;;;;0.40;0.40;;;21.20;51.60;;;21.40;36.58;94795.84;5014971;28;20202;-40
2023/06/13 08:47:11;;;;;;;0.40;0.40;;;21.20;51.60;;;21.43;36.53;94797.16;5013993;28;20211;-40
2023/06/13 08:50:00;;;;;;;0.40;0.40;;;21.20;51.60;;;21.42;36.78;94788.38;5014703;28;20217;-41
2023/06/13 08:52:38;;;;;;;0.40;0.40;;;21.30;51.60;;;21.47;36.52;94789.44;5014756;28;20203;-39
2023/06/13 08:55:14;;;;;;;0.43;0.43;;;21.30;51.50;;;21.47;36.32;94798.25;5015371;28;20190;-40
2023/06/13 08:58:04;;;;;;;0.40;0.40;;;21.30;51.20;;;21.48;36.41;94788.38;5014146;28;20636;-41
2023/06/13 09:00:35;;;;;;;0.40;0.40;;;21.30;51.20;;;21.48;36.09;94796.38;5014135;28;20185;-40
2023/06/13 09:03:04;;;;;;;0.40;0.40;;;21.30;51.00;;;21.49;36.56;94798.00;5014929;28;20189;-40
2023/06/13 09:05:32;;;;;;;0.40;0.40;;;21.30;51.00;;;21.51;36.09;94794.00;5014050;28;20518;-41
2023/06/13 09:08:00;;;;;;;0.38;0.38;;;21.30;50.90;;;21.53;36.17;94805.22;5014387;28;20645;-40
2023/06/13 09:10:49;;;;;;;0.40;0.40;;;21.30;50.90;;;21.53;36.36;94791.06;5013569;28;20218;-40
2023/06/13 09:13:17;;;;;;;0.40;0.40;;;21.30;50.70;;;21.54;35.98;94790.78;5014543;28;20200;-44
2023/06/13 09:15:45;;;;;;;0.40;0.40;;;21.40;50.70;;;21.54;36.10;94788.09;5030496;28;20267;-45
2023/06/13 09:18:12;;;;;;;0.40;0.40;;;21.40;50.70;;;21.58;36.15;94793.75;5014293;28;20285;-41
2023/06/13 09:20:40;;;;;;;0.30;0.30;;;21.40;50.80;;;21.59;36.20;94793.50;5013882;28;20269;-41
2023/06/13 09:23:08;;;;;;;0.40;0.40;;;21.40;50.70;;;21.61;35.62;94792.44;5014259;28;20289;-40
2023/06/13 09:25:36;;;;;;;0.40;0.40;;;21.40;50.70;;;21.62;36.36;94780.69;5014642;28;20230;-43
2023/06/13 09:28:37;;;;;;;0.43;0.43;;;21.40;50.70;;;21.62;35.84;94788.69;5014474;28;20229;-41
2023/06/13 09:31:06;;;;;;;0.40;0.40;;;21.40;50.60;;;21.64;36.00;94797.25;5013921;28;20515;-43
2023/06/13 09:33:34;;;;;;;0.40;0.40;;;21.40;50.70;;;21.65;35.95;94793.50;5014211;28;20226;-41
2023/06/13 09:36:03;;;;;;;0.40;0.40;;;21.50;52.00;;;21.68;35.56;94791.13;5013426;28;20208;-40
2023/06/13 09:38:53;;;;;;;0.40;0.40;;;21.50;50.70;;;21.70;35.94;94790.84;5014094;28;20609;-45
2023/06/13 09:41:21;;;;;;;0.35;0.35;;;21.50;50.70;;;21.72;35.72;94788.72;5014257;28;20282;-41
2023/06/13 09:43:54;;;;;;;0.40;0.40;;;21.50;50.50;;;21.73;35.61;94785.00;5014409;28;20215;-41
2023/06/13 09:46:24;;;;;;;0.40;0.40;;;21.50;50.40;;;21.74;35.74;94787.38;5014117;28;20289;-41
2023/06/13 09:48:52;;;;;;;0.30;0.30;;;21.50;50.40;;;21.77;36.03;94790.59;5014101;28;20271;-41
2023/06/13 09:51:21;;;;;;;0.32;0.32;;;21.60;50.50;;;21.79;35.88;94786.59;5014059;28;20218;-42
2023/06/13 09:53:49;;;;;;;0.40;0.40;;;21.50;50.30;;;21.81;35.75;94780.97;5014161;28;20521;-42
2023/06/13 09:56:16;;;;;;;0.40;0.40;;;21.50;50.10;;;21.82;35.43;94782.59;5013924;28;20195;-42
2023/06/13 09:58:44;;;;;;;0.50;0.50;;;21.60;50.20;;;21.84;35.30;94778.59;5014096;28;20195;-43
2023/06/13 10:01:15;;;;;;;0.40;0.40;;;21.60;50.20;;;21.87;35.48;94779.91;5013070;28;20213;-41
2023/06/13 10:03:43;;;;;;;0.50;0.50;;;21.60;50.00;;;21.88;35.51;94770.84;5014122;28;20550;-45
2023/06/13 10:06:12;;;;;;;0.40;0.40;;;21.70;50.10;;;21.88;35.37;94774.31;5013797;28;20279;-41
2023/06/13 10:08:40;;;;;;;0.40;0.40;;;21.60;50.10;;;21.91;35.08;94783.69;5013585;28;20264;-43
2023/06/13 10:11:12;;;;;;;0.30;0.30;;;21.70;50.00;;;21.92;35.04;94777.25;5013833;28;20246;-41
2023/06/13 10:13:56;;;;;;;0.40;0.40;;;21.70;50.00;;;21.93;35.31;94775.38;5014014;28;20270;-41
2023/06/13 10:16:27;;;;;;;0.40;0.40;;;21.70;49.80;;;21.95;35.20;94771.38;5029312;28;20195;-41
2023/06/13 10:18:57;;;;;;;0.35;0.35;;;21.70;49.90;;;21.96;34.85;94770.31;5013605;28;20177;-39
2023/06/13 10:21:25;;;;;;;0.40;0.40;;;21.70;49.80;;;21.98;34.99;94768.16;5013589;28;20195;-40
2023/06/13 10:23:57;;;;;;;0.35;0.35;;;21.70;51.10;;;21.99;35.08;94767.09;5012638;28;20601;-40
2023/06/13 10:26:43;;;;;;;0.30;0.30;;;21.70;49.80;;;22.00;35.06;94758.03;5012653;28;20202;-41
2023/06/13 10:29:48;;;;;;;0.30;0.30;;;21.70;49.50;;;21.99;34.86;94750.28;5013447;28;20191;-40
2023/06/13 10:33:00;;;;;;;0.40;0.40;;;21.70;49.60;;;21.99;34.96;94742.28;5013244;28;20669;-40